sensor_id;sensor_type;location;lat;lon;timestamp;P1;durP1;ratioP1;P2;durP2;ratioP2
10450;SDS011;5273;51.290;6.918;2023-04-03T00:00:49;7.83;;;4.97;;
10450;SDS011;5273;51.290;6.918;2023-04-03T00:03:16;11.40;;;5.33;;
10450;SDS011;5273;51.290;6.918;2023-04-03T00:05:43;7.30;;;5.23;;
10450;SDS011;5273;51.290;6.918;2023-04-03T00:08:11;8.77;;;5.43;;
10450;SDS011;5273;51.290;6.918;2023-04-03T00:10:38;7.73;;;5.40;;
10450;SDS011;5273;51.290;6.918;2023-04-03T00:13:06;8.73;;;5.33;;
10450;SDS011;5273;51.290;6.918;2023-04-03T00:15:34;9.47;;;5.30;;
10450;SDS011;5273;51.290;6.918;2023-04-03T00:18:01;6.60;;;5.23;;
10450;SDS011;5273;51.290;6.918;2023-04-03T00:20:28;8.83;;;5.27;;
10450;SDS011;5273;51.290;6.918;2023-04-03T00:22:55;8.90;;;5.90;;
10450;SDS011;5273;51.290;6.918;2023-04-03T00:25:22;10.87;;;5.80;;
10450;SDS011;5273;51.290;6.918;2023-04-03T00:27:50;14.27;;;6.47;;
10450;SDS011;5273;51.290;6.918;2023-04-03T00:30:19;14.10;;;6.77;;
10450;SDS011;5273;51.290;6.918;2023-04-03T00:32:47;8.57;;;5.70;;
10450;SDS011;5273;51.290;6.918;2023-04-03T00:35:14;10.17;;;5.73;;
10450;SDS011;5273;51.290;6.918;2023-04-03T00:37:41;12.33;;;5.50;;
10450;SDS011;5273;51.290;6.918;2023-04-03T00:40:08;12.43;;;5.87;;
10450;SDS011;5273;51.290;6.918;2023-04-03T00:42:36;7.47;;;5.07;;
10450;SDS011;5273;51.290;6.918;2023-04-03T00:45:24;7.17;;;5.37;;
10450;SDS011;5273;51.290;6.918;2023-04-03T00:47:56;9.27;;;5.60;;
10450;SDS011;5273;51.290;6.918;2023-04-03T00:50:25;5.83;;;5.03;;
10450;SDS011;5273;51.290;6.918;2023-04-03T00:52:53;6.10;;;5.00;;
10450;SDS011;5273;51.290;6.918;2023-04-03T00:55:20;9.33;;;4.97;;
10450;SDS011;5273;51.290;6.918;2023-04-03T00:57:47;6.43;;;4.97;;
10450;SDS011;5273;51.290;6.918;2023-04-03T01:00:16;5.80;;;5.07;;
10450;SDS011;5273;51.290;6.918;2023-04-03T01:02:47;8.53;;;4.97;;
10450;SDS011;5273;51.290;6.918;2023-04-03T01:05:14;6.87;;;4.70;;
10450;SDS011;5273;51.290;6.918;2023-04-03T01:07:42;5.40;;;4.90;;
10450;SDS011;5273;51.290;6.918;2023-04-03T01:10:10;8.67;;;4.83;;
10450;SDS011;5273;51.290;6.918;2023-04-03T01:12:41;5.70;;;4.77;;
10450;SDS011;5273;51.290;6.918;2023-04-03T01:15:09;4.93;;;4.20;;
10450;SDS011;5273;51.290;6.918;2023-04-03T01:17:39;5.70;;;4.70;;
10450;SDS011;5273;51.290;6.918;2023-04-03T01:23:10;6.60;;;4.67;;
10450;SDS011;5273;51.290;6.918;2023-04-03T01:25:49;6.90;;;4.13;;
10450;SDS011;5273;51.290;6.918;2023-04-03T01:28:18;10.47;;;4.43;;
10450;SDS011;5273;51.290;6.918;2023-04-03T01:30:47;7.70;;;4.87;;
10450;SDS011;5273;51.290;6.918;2023-04-03T01:33:20;5.57;;;3.47;;
10450;SDS011;5273;51.290;6.918;2023-04-03T01:35:47;5.03;;;3.80;;
10450;SDS011;5273;51.290;6.918;2023-04-03T01:38:14;5.87;;;3.80;;
10450;SDS011;5273;51.290;6.918;2023-04-03T01:40:41;5.70;;;3.80;;
10450;SDS011;5273;51.290;6.918;2023-04-03T01:43:08;4.73;;;3.73;;
10450;SDS011;5273;51.290;6.918;2023-04-03T01:45:36;6.60;;;3.60;;
10450;SDS011;5273;51.290;6.918;2023-04-03T01:48:03;6.57;;;3.73;;
10450;SDS011;5273;51.290;6.918;2023-04-03T01:50:32;4.93;;;3.13;;
10450;SDS011;5273;51.290;6.918;2023-04-03T01:52:59;7.43;;;3.30;;
10450;SDS011;5273;51.290;6.918;2023-04-03T01:55:26;5.87;;;3.67;;
10450;SDS011;5273;51.290;6.918;2023-04-03T01:57:53;5.60;;;3.40;;
10450;SDS011;5273;51.290;6.918;2023-04-03T02:00:20;3.13;;;2.73;;
10450;SDS011;5273;51.290;6.918;2023-04-03T02:02:47;8.73;;;3.13;;
10450;SDS011;5273;51.290;6.918;2023-04-03T02:05:15;7.03;;;3.53;;
10450;SDS011;5273;51.290;6.918;2023-04-03T02:07:43;4.70;;;3.13;;
10450;SDS011;5273;51.290;6.918;2023-04-03T02:10:10;8.30;;;4.10;;
10450;SDS011;5273;51.290;6.918;2023-04-03T02:12:38;9.10;;;3.97;;
10450;SDS011;5273;51.290;6.918;2023-04-03T02:15:05;6.27;;;3.83;;
10450;SDS011;5273;51.290;6.918;2023-04-03T02:17:33;7.10;;;3.70;;
10450;SDS011;5273;51.290;6.918;2023-04-03T02:20:01;5.17;;;3.70;;
10450;SDS011;5273;51.290;6.918;2023-04-03T02:22:28;5.70;;;4.67;;
10450;SDS011;5273;51.290;6.918;2023-04-03T02:24:56;7.67;;;3.83;;
10450;SDS011;5273;51.290;6.918;2023-04-03T02:27:23;6.17;;;3.93;;
10450;SDS011;5273;51.290;6.918;2023-04-03T02:29:50;5.90;;;3.90;;
10450;SDS011;5273;51.290;6.918;2023-04-03T02:32:17;6.50;;;4.10;;
10450;SDS011;5273;51.290;6.918;2023-04-03T02:34:45;9.10;;;4.70;;
10450;SDS011;5273;51.290;6.918;2023-04-03T02:37:12;6.43;;;4.30;;
10450;SDS011;5273;51.290;6.918;2023-04-03T02:39:39;6.97;;;4.10;;
10450;SDS011;5273;51.290;6.918;2023-04-03T02:42:07;6.73;;;4.30;;
10450;SDS011;5273;51.290;6.918;2023-04-03T02:44:34;6.33;;;4.07;;
10450;SDS011;5273;51.290;6.918;2023-04-03T02:47:01;5.30;;;4.13;;
10450;SDS011;5273;51.290;6.918;2023-04-03T02:49:29;8.97;;;3.97;;
10450;SDS011;5273;51.290;6.918;2023-04-03T02:51:56;6.97;;;3.57;;
10450;SDS011;5273;51.290;6.918;2023-04-03T02:54:23;8.80;;;4.07;;
10450;SDS011;5273;51.290;6.918;2023-04-03T02:56:53;4.67;;;3.73;;
10450;SDS011;5273;51.290;6.918;2023-04-03T02:59:22;4.00;;;3.40;;
10450;SDS011;5273;51.290;6.918;2023-04-03T03:01:48;5.37;;;3.70;;
10450;SDS011;5273;51.290;6.918;2023-04-03T03:04:15;5.77;;;3.30;;
10450;SDS011;5273;51.290;6.918;2023-04-03T03:06:43;6.87;;;3.43;;
10450;SDS011;5273;51.290;6.918;2023-04-03T03:09:10;4.90;;;3.27;;
10450;SDS011;5273;51.290;6.918;2023-04-03T03:11:38;8.17;;;3.77;;
10450;SDS011;5273;51.290;6.918;2023-04-03T03:14:05;10.37;;;3.33;;
10450;SDS011;5273;51.290;6.918;2023-04-03T03:16:33;5.63;;;3.67;;
10450;SDS011;5273;51.290;6.918;2023-04-03T03:19:00;4.13;;;3.20;;
10450;SDS011;5273;51.290;6.918;2023-04-03T03:21:27;6.33;;;3.23;;
10450;SDS011;5273;51.290;6.918;2023-04-03T03:23:54;5.13;;;3.03;;
10450;SDS011;5273;51.290;6.918;2023-04-03T03:26:22;5.80;;;3.23;;
10450;SDS011;5273;51.290;6.918;2023-04-03T03:28:49;4.83;;;3.30;;
10450;SDS011;5273;51.290;6.918;2023-04-03T03:31:16;4.57;;;3.40;;
10450;SDS011;5273;51.290;6.918;2023-04-03T03:33:44;5.73;;;2.97;;
10450;SDS011;5273;51.290;6.918;2023-04-03T03:36:11;7.87;;;3.30;;
10450;SDS011;5273;51.290;6.918;2023-04-03T03:38:38;5.70;;;3.00;;
10450;SDS011;5273;51.290;6.918;2023-04-03T03:41:05;7.07;;;3.17;;
10450;SDS011;5273;51.290;6.918;2023-04-03T03:43:32;4.33;;;3.13;;
10450;SDS011;5273;51.290;6.918;2023-04-03T03:45:59;6.30;;;3.40;;
10450;SDS011;5273;51.290;6.918;2023-04-03T03:48:26;5.43;;;2.90;;
10450;SDS011;5273;51.290;6.918;2023-04-03T03:50:55;4.70;;;2.70;;
10450;SDS011;5273;51.290;6.918;2023-04-03T03:53:22;9.40;;;3.00;;
10450;SDS011;5273;51.290;6.918;2023-04-03T03:55:49;6.57;;;2.87;;
10450;SDS011;5273;51.290;6.918;2023-04-03T03:58:16;5.70;;;2.77;;
10450;SDS011;5273;51.290;6.918;2023-04-03T04:00:43;6.57;;;3.10;;
10450;SDS011;5273;51.290;6.918;2023-04-03T04:03:10;7.97;;;3.20;;
10450;SDS011;5273;51.290;6.918;2023-04-03T04:05:37;4.57;;;3.20;;
10450;SDS011;5273;51.290;6.918;2023-04-03T04:08:06;4.70;;;2.60;;
10450;SDS011;5273;51.290;6.918;2023-04-03T04:10:33;2.90;;;2.63;;
10450;SDS011;5273;51.290;6.918;2023-04-03T04:13:00;4.93;;;2.50;;
10450;SDS011;5273;51.290;6.918;2023-04-03T04:15:27;3.17;;;2.13;;
10450;SDS011;5273;51.290;6.918;2023-04-03T04:17:54;3.30;;;2.13;;
10450;SDS011;5273;51.290;6.918;2023-04-03T04:20:22;3.07;;;2.40;;
10450;SDS011;5273;51.290;6.918;2023-04-03T04:22:49;4.50;;;2.73;;
10450;SDS011;5273;51.290;6.918;2023-04-03T04:25:17;3.27;;;2.70;;
10450;SDS011;5273;51.290;6.918;2023-04-03T04:27:44;7.63;;;2.80;;
10450;SDS011;5273;51.290;6.918;2023-04-03T04:30:12;4.03;;;2.70;;
10450;SDS011;5273;51.290;6.918;2023-04-03T04:32:39;8.43;;;3.60;;
10450;SDS011;5273;51.290;6.918;2023-04-03T04:35:07;4.90;;;2.93;;
10450;SDS011;5273;51.290;6.918;2023-04-03T04:37:34;5.00;;;2.67;;
10450;SDS011;5273;51.290;6.918;2023-04-03T04:40:02;8.47;;;2.97;;
10450;SDS011;5273;51.290;6.918;2023-04-03T04:42:31;3.60;;;2.60;;
10450;SDS011;5273;51.290;6.918;2023-04-03T04:44:57;10.57;;;3.03;;
10450;SDS011;5273;51.290;6.918;2023-04-03T04:47:24;6.17;;;2.93;;
10450;SDS011;5273;51.290;6.918;2023-04-03T04:49:51;3.60;;;2.07;;
10450;SDS011;5273;51.290;6.918;2023-04-03T04:52:19;7.17;;;2.73;;
10450;SDS011;5273;51.290;6.918;2023-04-03T04:54:46;4.70;;;2.70;;
10450;SDS011;5273;51.290;6.918;2023-04-03T04:57:13;8.60;;;3.20;;
10450;SDS011;5273;51.290;6.918;2023-04-03T04:59:42;6.57;;;3.23;;
10450;SDS011;5273;51.290;6.918;2023-04-03T05:02:08;5.13;;;2.97;;
10450;SDS011;5273;51.290;6.918;2023-04-03T05:04:35;6.20;;;2.70;;
10450;SDS011;5273;51.290;6.918;2023-04-03T05:07:02;5.77;;;2.50;;
10450;SDS011;5273;51.290;6.918;2023-04-03T05:09:30;7.73;;;2.60;;
10450;SDS011;5273;51.290;6.918;2023-04-03T05:11:57;7.23;;;2.60;;
10450;SDS011;5273;51.290;6.918;2023-04-03T05:14:24;9.57;;;3.77;;
10450;SDS011;5273;51.290;6.918;2023-04-03T05:16:53;5.77;;;3.57;;
10450;SDS011;5273;51.290;6.918;2023-04-03T05:19:20;4.57;;;3.13;;
10450;SDS011;5273;51.290;6.918;2023-04-03T05:21:47;5.23;;;2.87;;
10450;SDS011;5273;51.290;6.918;2023-04-03T05:24:14;4.40;;;2.80;;
10450;SDS011;5273;51.290;6.918;2023-04-03T05:26:41;5.67;;;2.60;;
10450;SDS011;5273;51.290;6.918;2023-04-03T05:29:09;5.53;;;2.87;;
10450;SDS011;5273;51.290;6.918;2023-04-03T05:31:36;7.83;;;3.30;;
10450;SDS011;5273;51.290;6.918;2023-04-03T05:34:05;7.37;;;2.93;;
10450;SDS011;5273;51.290;6.918;2023-04-03T05:36:31;5.73;;;3.10;;
10450;SDS011;5273;51.290;6.918;2023-04-03T05:38:59;8.07;;;2.70;;
10450;SDS011;5273;51.290;6.918;2023-04-03T05:41:26;3.63;;;2.90;;
10450;SDS011;5273;51.290;6.918;2023-04-03T05:43:53;4.70;;;2.87;;
10450;SDS011;5273;51.290;6.918;2023-04-03T05:46:20;7.40;;;2.63;;
10450;SDS011;5273;51.290;6.918;2023-04-03T05:48:47;10.07;;;3.07;;
10450;SDS011;5273;51.290;6.918;2023-04-03T05:51:16;7.73;;;3.13;;
10450;SDS011;5273;51.290;6.918;2023-04-03T05:53:45;4.20;;;2.63;;
10450;SDS011;5273;51.290;6.918;2023-04-03T05:56:13;8.43;;;2.93;;
10450;SDS011;5273;51.290;6.918;2023-04-03T05:58:41;3.50;;;2.13;;
10450;SDS011;5273;51.290;6.918;2023-04-03T06:01:08;5.63;;;2.50;;
10450;SDS011;5273;51.290;6.918;2023-04-03T06:03:35;5.17;;;2.73;;
10450;SDS011;5273;51.290;6.918;2023-04-03T06:06:03;4.47;;;2.13;;
10450;SDS011;5273;51.290;6.918;2023-04-03T06:08:32;5.90;;;2.30;;
10450;SDS011;5273;51.290;6.918;2023-04-03T06:11:00;3.73;;;2.10;;
10450;SDS011;5273;51.290;6.918;2023-04-03T06:13:27;4.27;;;2.60;;
10450;SDS011;5273;51.290;6.918;2023-04-03T06:15:54;5.83;;;2.20;;
10450;SDS011;5273;51.290;6.918;2023-04-03T06:18:22;6.03;;;2.80;;
10450;SDS011;5273;51.290;6.918;2023-04-03T06:20:49;6.07;;;2.80;;
10450;SDS011;5273;51.290;6.918;2023-04-03T06:23:16;7.20;;;3.13;;
10450;SDS011;5273;51.290;6.918;2023-04-03T06:25:45;5.77;;;3.10;;
10450;SDS011;5273;51.290;6.918;2023-04-03T06:28:12;7.30;;;2.40;;
10450;SDS011;5273;51.290;6.918;2023-04-03T06:30:39;5.57;;;2.27;;
10450;SDS011;5273;51.290;6.918;2023-04-03T06:33:06;3.50;;;2.10;;
10450;SDS011;5273;51.290;6.918;2023-04-03T06:35:33;8.80;;;2.40;;
10450;SDS011;5273;51.290;6.918;2023-04-03T06:38:01;3.00;;;1.83;;
10450;SDS011;5273;51.290;6.918;2023-04-03T06:40:29;4.20;;;2.03;;
10450;SDS011;5273;51.290;6.918;2023-04-03T06:42:57;3.90;;;1.80;;
10450;SDS011;5273;51.290;6.918;2023-04-03T06:45:24;2.83;;;1.70;;
10450;SDS011;5273;51.290;6.918;2023-04-03T06:47:51;3.40;;;1.97;;
10450;SDS011;5273;51.290;6.918;2023-04-03T06:50:18;5.25;;;2.17;;
10450;SDS011;5273;51.290;6.918;2023-04-03T06:52:45;3.33;;;2.00;;
10450;SDS011;5273;51.290;6.918;2023-04-03T06:55:11;5.85;;;2.30;;
10450;SDS011;5273;51.290;6.918;2023-04-03T06:57:38;3.08;;;1.80;;
10450;SDS011;5273;51.290;6.918;2023-04-03T07:00:07;3.33;;;1.95;;
10450;SDS011;5273;51.290;6.918;2023-04-03T07:02:35;3.90;;;2.20;;
10450;SDS011;5273;51.290;6.918;2023-04-03T07:05:02;2.55;;;1.77;;
10450;SDS011;5273;51.290;6.918;2023-04-03T07:07:30;8.57;;;4.00;;
10450;SDS011;5273;51.290;6.918;2023-04-03T07:09:58;3.38;;;1.85;;
10450;SDS011;5273;51.290;6.918;2023-04-03T07:12:25;2.78;;;2.10;;
10450;SDS011;5273;51.290;6.918;2023-04-03T07:14:52;5.32;;;2.00;;
10450;SDS011;5273;51.290;6.918;2023-04-03T07:17:20;3.17;;;1.50;;
10450;SDS011;5273;51.290;6.918;2023-04-03T07:19:47;3.53;;;2.28;;
10450;SDS011;5273;51.290;6.918;2023-04-03T07:22:14;3.45;;;1.52;;
10450;SDS011;5273;51.290;6.918;2023-04-03T07:24:41;2.70;;;1.80;;
10450;SDS011;5273;51.290;6.918;2023-04-03T07:27:08;3.58;;;2.15;;
10450;SDS011;5273;51.290;6.918;2023-04-03T07:29:35;3.33;;;1.70;;
10450;SDS011;5273;51.290;6.918;2023-04-03T07:32:02;1.77;;;1.48;;
10450;SDS011;5273;51.290;6.918;2023-04-03T07:34:30;3.53;;;1.92;;
10450;SDS011;5273;51.290;6.918;2023-04-03T07:36:57;2.60;;;2.00;;
10450;SDS011;5273;51.290;6.918;2023-04-03T07:39:25;3.90;;;2.08;;
10450;SDS011;5273;51.290;6.918;2023-04-03T07:41:52;2.88;;;1.83;;
10450;SDS011;5273;51.290;6.918;2023-04-03T07:44:20;2.85;;;1.33;;
10450;SDS011;5273;51.290;6.918;2023-04-03T07:46:47;1.67;;;1.50;;
10450;SDS011;5273;51.290;6.918;2023-04-03T07:49:15;3.40;;;1.63;;
10450;SDS011;5273;51.290;6.918;2023-04-03T07:51:44;2.60;;;1.83;;
10450;SDS011;5273;51.290;6.918;2023-04-03T07:54:11;1.92;;;1.30;;
10450;SDS011;5273;51.290;6.918;2023-04-03T07:56:38;2.13;;;1.90;;
10450;SDS011;5273;51.290;6.918;2023-04-03T07:59:06;5.15;;;1.75;;
10450;SDS011;5273;51.290;6.918;2023-04-03T08:01:33;3.58;;;1.90;;
10450;SDS011;5273;51.290;6.918;2023-04-03T08:04:00;3.17;;;1.55;;
10450;SDS011;5273;51.290;6.918;2023-04-03T08:06:27;2.75;;;1.85;;
10450;SDS011;5273;51.290;6.918;2023-04-03T08:08:56;3.60;;;2.20;;
10450;SDS011;5273;51.290;6.918;2023-04-03T08:11:23;3.33;;;2.10;;
10450;SDS011;5273;51.290;6.918;2023-04-03T08:13:51;2.97;;;1.85;;
10450;SDS011;5273;51.290;6.918;2023-04-03T08:16:20;4.38;;;2.47;;
10450;SDS011;5273;51.290;6.918;2023-04-03T08:18:48;4.72;;;2.45;;
10450;SDS011;5273;51.290;6.918;2023-04-03T08:21:16;2.17;;;1.60;;
10450;SDS011;5273;51.290;6.918;2023-04-03T08:23:43;1.58;;;1.48;;
10450;SDS011;5273;51.290;6.918;2023-04-03T08:26:11;5.93;;;2.00;;
10450;SDS011;5273;51.290;6.918;2023-04-03T08:28:39;4.13;;;2.25;;
10450;SDS011;5273;51.290;6.918;2023-04-03T08:31:09;3.83;;;1.85;;
10450;SDS011;5273;51.290;6.918;2023-04-03T08:33:37;2.35;;;1.38;;
10450;SDS011;5273;51.290;6.918;2023-04-03T08:36:05;1.98;;;1.80;;
10450;SDS011;5273;51.290;6.918;2023-04-03T08:38:33;4.25;;;1.80;;
10450;SDS011;5273;51.290;6.918;2023-04-03T08:41:06;2.42;;;1.65;;
10450;SDS011;5273;51.290;6.918;2023-04-03T08:43:43;2.72;;;1.70;;
10450;SDS011;5273;51.290;6.918;2023-04-03T08:46:22;5.55;;;1.70;;
10450;SDS011;5273;51.290;6.918;2023-04-03T08:48:54;3.28;;;1.23;;
10450;SDS011;5273;51.290;6.918;2023-04-03T08:51:24;3.67;;;1.80;;
10450;SDS011;5273;51.290;6.918;2023-04-03T08:53:55;3.10;;;1.38;;
10450;SDS011;5273;51.290;6.918;2023-04-03T08:56:26;2.85;;;1.60;;
10450;SDS011;5273;51.290;6.918;2023-04-03T08:58:55;2.90;;;1.52;;
10450;SDS011;5273;51.290;6.918;2023-04-03T09:01:25;2.95;;;1.83;;
10450;SDS011;5273;51.290;6.918;2023-04-03T09:03:56;3.38;;;1.60;;
10450;SDS011;5273;51.290;6.918;2023-04-03T09:06:23;3.15;;;1.50;;
10450;SDS011;5273;51.290;6.918;2023-04-03T09:08:56;2.95;;;1.30;;
10450;SDS011;5273;51.290;6.918;2023-04-03T09:11:39;2.00;;;1.80;;
10450;SDS011;5273;51.290;6.918;2023-04-03T09:14:19;2.25;;;1.58;;
10450;SDS011;5273;51.290;6.918;2023-04-03T09:16:53;2.15;;;1.45;;
10450;SDS011;5273;51.290;6.918;2023-04-03T09:19:27;2.20;;;1.60;;
10450;SDS011;5273;51.290;6.918;2023-04-03T09:22:03;2.47;;;1.40;;
10450;SDS011;5273;51.290;6.918;2023-04-03T09:24:39;2.25;;;1.23;;
10450;SDS011;5273;51.290;6.918;2023-04-03T09:27:10;1.30;;;1.20;;
10450;SDS011;5273;51.290;6.918;2023-04-03T09:29:39;3.67;;;1.65;;
10450;SDS011;5273;51.290;6.918;2023-04-03T09:32:15;2.35;;;1.23;;
10450;SDS011;5273;51.290;6.918;2023-04-03T09:34:47;3.40;;;1.00;;
10450;SDS011;5273;51.290;6.918;2023-04-03T09:40:06;2.47;;;1.10;;
10450;SDS011;5273;51.290;6.918;2023-04-03T09:42:56;1.90;;;1.15;;
10450;SDS011;5273;51.290;6.918;2023-04-03T09:45:24;1.92;;;1.20;;
10450;SDS011;5273;51.290;6.918;2023-04-03T09:48:03;3.75;;;1.40;;
10450;SDS011;5273;51.290;6.918;2023-04-03T09:50:33;2.40;;;1.40;;
10450;SDS011;5273;51.290;6.918;2023-04-03T09:53:04;1.75;;;1.10;;
10450;SDS011;5273;51.290;6.918;2023-04-03T09:55:33;2.03;;;1.30;;
10450;SDS011;5273;51.290;6.918;2023-04-03T09:58:23;2.45;;;1.52;;
10450;SDS011;5273;51.290;6.918;2023-04-03T10:00:53;2.10;;;1.30;;
10450;SDS011;5273;51.290;6.918;2023-04-03T10:03:23;2.05;;;1.30;;
10450;SDS011;5273;51.290;6.918;2023-04-03T10:05:52;2.60;;;1.98;;
10450;SDS011;5273;51.290;6.918;2023-04-03T10:08:21;1.85;;;1.33;;
10450;SDS011;5273;51.290;6.918;2023-04-03T10:11:05;2.40;;;1.42;;
10450;SDS011;5273;51.290;6.918;2023-04-03T10:13:37;1.55;;;1.33;;
10450;SDS011;5273;51.290;6.918;2023-04-03T10:16:17;2.35;;;1.30;;
10450;SDS011;5273;51.290;6.918;2023-04-03T10:18:47;2.55;;;1.45;;
10450;SDS011;5273;51.290;6.918;2023-04-03T10:21:26;4.35;;;1.55;;
10450;SDS011;5273;51.290;6.918;2023-04-03T10:24:03;4.40;;;1.60;;
10450;SDS011;5273;51.290;6.918;2023-04-03T10:26:38;2.25;;;1.77;;
10450;SDS011;5273;51.290;6.918;2023-04-03T10:29:15;3.10;;;1.45;;
10450;SDS011;5273;51.290;6.918;2023-04-03T10:31:52;1.75;;;1.58;;
10450;SDS011;5273;51.290;6.918;2023-04-03T10:34:28;3.00;;;1.40;;
10450;SDS011;5273;51.290;6.918;2023-04-03T10:36:59;3.70;;;1.50;;
10450;SDS011;5273;51.290;6.918;2023-04-03T10:39:36;2.28;;;1.60;;
10450;SDS011;5273;51.290;6.918;2023-04-03T10:42:12;2.88;;;1.65;;
10450;SDS011;5273;51.290;6.918;2023-04-03T10:47:45;2.60;;;1.50;;
10450;SDS011;5273;51.290;6.918;2023-04-03T10:50:26;1.77;;;1.52;;
10450;SDS011;5273;51.290;6.918;2023-04-03T10:53:02;2.75;;;1.40;;
10450;SDS011;5273;51.290;6.918;2023-04-03T10:55:34;2.67;;;1.52;;
10450;SDS011;5273;51.290;6.918;2023-04-03T10:58:05;1.63;;;1.52;;
10450;SDS011;5273;51.290;6.918;2023-04-03T11:00:36;2.28;;;1.40;;
10450;SDS011;5273;51.290;6.918;2023-04-03T11:03:08;2.22;;;1.23;;
10450;SDS011;5273;51.290;6.918;2023-04-03T11:05:40;1.80;;;1.02;;
10450;SDS011;5273;51.290;6.918;2023-04-03T11:08:11;2.83;;;1.33;;
10450;SDS011;5273;51.290;6.918;2023-04-03T11:10:48;3.10;;;1.25;;
10450;SDS011;5273;51.290;6.918;2023-04-03T11:13:17;1.85;;;0.98;;
10450;SDS011;5273;51.290;6.918;2023-04-03T11:15:48;5.10;;;1.98;;
10450;SDS011;5273;51.290;6.918;2023-04-03T11:18:17;1.27;;;1.17;;
10450;SDS011;5273;51.290;6.918;2023-04-03T11:20:50;2.88;;;1.20;;
10450;SDS011;5273;51.290;6.918;2023-04-03T11:23:26;1.98;;;1.45;;
10450;SDS011;5273;51.290;6.918;2023-04-03T11:25:56;1.23;;;1.10;;
10450;SDS011;5273;51.290;6.918;2023-04-03T11:28:32;1.87;;;1.10;;
10450;SDS011;5273;51.290;6.918;2023-04-03T11:31:01;2.33;;;1.03;;
10450;SDS011;5273;51.290;6.918;2023-04-03T11:33:43;4.30;;;1.20;;
10450;SDS011;5273;51.290;6.918;2023-04-03T11:36:18;1.70;;;1.40;;
10450;SDS011;5273;51.290;6.918;2023-04-03T11:38:49;5.27;;;1.37;;
10450;SDS011;5273;51.290;6.918;2023-04-03T11:41:24;3.67;;;1.20;;
10450;SDS011;5273;51.290;6.918;2023-04-03T11:43:56;2.53;;;1.20;;
10450;SDS011;5273;51.290;6.918;2023-04-03T11:52:28;1.95;;;1.30;;
10450;SDS011;5273;51.290;6.918;2023-04-03T11:55:41;1.88;;;1.10;;
10450;SDS011;5273;51.290;6.918;2023-04-03T11:58:14;1.55;;;1.00;;
10450;SDS011;5273;51.290;6.918;2023-04-03T12:00:55;1.48;;;1.23;;
10450;SDS011;5273;51.290;6.918;2023-04-03T12:12:41;3.23;;;1.23;;
10450;SDS011;5273;51.290;6.918;2023-04-03T12:15:24;1.23;;;0.80;;
10450;SDS011;5273;51.290;6.918;2023-04-03T12:21:24;0.83;;;0.83;;
10450;SDS011;5273;51.290;6.918;2023-04-03T12:24:31;1.13;;;0.90;;
10450;SDS011;5273;51.290;6.918;2023-04-03T12:27:04;1.60;;;1.00;;
10450;SDS011;5273;51.290;6.918;2023-04-03T12:29:43;0.80;;;0.70;;
10450;SDS011;5273;51.290;6.918;2023-04-03T12:32:19;1.27;;;0.90;;
10450;SDS011;5273;51.290;6.918;2023-04-03T12:35:03;2.33;;;1.10;;
10450;SDS011;5273;51.290;6.918;2023-04-03T12:37:39;2.33;;;1.03;;
10450;SDS011;5273;51.290;6.918;2023-04-03T12:40:19;2.20;;;1.30;;
10450;SDS011;5273;51.290;6.918;2023-04-03T12:43:04;2.03;;;1.20;;
10450;SDS011;5273;51.290;6.918;2023-04-03T12:45:51;2.07;;;1.30;;
10450;SDS011;5273;51.290;6.918;2023-04-03T12:48:25;1.90;;;1.40;;
10450;SDS011;5273;51.290;6.918;2023-04-03T12:50:54;7.10;;;1.40;;
10450;SDS011;5273;51.290;6.918;2023-04-03T12:53:24;1.53;;;1.07;;
10450;SDS011;5273;51.290;6.918;2023-04-03T12:55:53;4.40;;;1.40;;
10450;SDS011;5273;51.290;6.918;2023-04-03T12:58:22;3.00;;;1.30;;
10450;SDS011;5273;51.290;6.918;2023-04-03T13:01:01;1.07;;;1.00;;
10450;SDS011;5273;51.290;6.918;2023-04-03T13:03:29;3.70;;;1.17;;
10450;SDS011;5273;51.290;6.918;2023-04-03T13:05:57;1.60;;;1.13;;
10450;SDS011;5273;51.290;6.918;2023-04-03T13:08:26;5.23;;;1.43;;
10450;SDS011;5273;51.290;6.918;2023-04-03T13:10:54;3.80;;;1.47;;
10450;SDS011;5273;51.290;6.918;2023-04-03T13:13:24;1.87;;;1.10;;
10450;SDS011;5273;51.290;6.918;2023-04-03T13:15:52;2.27;;;1.40;;
10450;SDS011;5273;51.290;6.918;2023-04-03T13:18:27;1.63;;;1.10;;
10450;SDS011;5273;51.290;6.918;2023-04-03T13:20:57;3.67;;;1.20;;
10450;SDS011;5273;51.290;6.918;2023-04-03T13:23:28;2.30;;;1.10;;
10450;SDS011;5273;51.290;6.918;2023-04-03T13:25:56;3.13;;;1.50;;
10450;SDS011;5273;51.290;6.918;2023-04-03T13:28:29;4.27;;;1.23;;
10450;SDS011;5273;51.290;6.918;2023-04-03T13:31:07;1.33;;;1.00;;
10450;SDS011;5273;51.290;6.918;2023-04-03T13:33:43;2.07;;;1.07;;
10450;SDS011;5273;51.290;6.918;2023-04-03T13:36:22;1.97;;;1.30;;
10450;SDS011;5273;51.290;6.918;2023-04-03T13:39:02;1.37;;;1.00;;
10450;SDS011;5273;51.290;6.918;2023-04-03T13:41:39;2.40;;;1.10;;
10450;SDS011;5273;51.290;6.918;2023-04-03T13:44:27;1.00;;;1.00;;
10450;SDS011;5273;51.290;6.918;2023-04-03T13:46:57;2.77;;;1.27;;
10450;SDS011;5273;51.290;6.918;2023-04-03T13:49:30;1.77;;;1.10;;
10450;SDS011;5273;51.290;6.918;2023-04-03T13:51:59;1.60;;;1.13;;
10450;SDS011;5273;51.290;6.918;2023-04-03T13:54:29;2.67;;;1.53;;
10450;SDS011;5273;51.290;6.918;2023-04-03T13:56:58;1.47;;;1.37;;
10450;SDS011;5273;51.290;6.918;2023-04-03T13:59:28;3.43;;;1.20;;
10450;SDS011;5273;51.290;6.918;2023-04-03T14:02:09;4.40;;;1.07;;
10450;SDS011;5273;51.290;6.918;2023-04-03T14:04:48;2.47;;;1.30;;
10450;SDS011;5273;51.290;6.918;2023-04-03T14:07:18;1.57;;;0.97;;
10450;SDS011;5273;51.290;6.918;2023-04-03T14:09:46;1.73;;;1.27;;
10450;SDS011;5273;51.290;6.918;2023-04-03T14:12:14;3.87;;;1.40;;
10450;SDS011;5273;51.290;6.918;2023-04-03T14:14:45;2.03;;;1.43;;
10450;SDS011;5273;51.290;6.918;2023-04-03T14:17:14;2.53;;;1.37;;
10450;SDS011;5273;51.290;6.918;2023-04-03T14:19:43;1.20;;;1.00;;
10450;SDS011;5273;51.290;6.918;2023-04-03T14:22:12;1.60;;;1.10;;
10450;SDS011;5273;51.290;6.918;2023-04-03T14:24:41;1.97;;;1.33;;
10450;SDS011;5273;51.290;6.918;2023-04-03T14:27:11;1.47;;;1.10;;
10450;SDS011;5273;51.290;6.918;2023-04-03T14:29:42;2.60;;;1.50;;
10450;SDS011;5273;51.290;6.918;2023-04-03T14:32:11;4.43;;;1.43;;
10450;SDS011;5273;51.290;6.918;2023-04-03T14:34:39;2.43;;;1.37;;
10450;SDS011;5273;51.290;6.918;2023-04-03T14:37:09;1.77;;;1.20;;
10450;SDS011;5273;51.290;6.918;2023-04-03T14:39:37;1.23;;;0.90;;
10450;SDS011;5273;51.290;6.918;2023-04-03T14:42:04;2.37;;;1.30;;
10450;SDS011;5273;51.290;6.918;2023-04-03T14:44:31;2.30;;;1.10;;
10450;SDS011;5273;51.290;6.918;2023-04-03T14:46:58;3.77;;;1.60;;
10450;SDS011;5273;51.290;6.918;2023-04-03T14:49:27;2.53;;;1.00;;
10450;SDS011;5273;51.290;6.918;2023-04-03T14:51:55;1.40;;;1.10;;
10450;SDS011;5273;51.290;6.918;2023-04-03T14:54:22;3.07;;;0.97;;
10450;SDS011;5273;51.290;6.918;2023-04-03T14:56:52;2.37;;;1.33;;
10450;SDS011;5273;51.290;6.918;2023-04-03T14:59:20;1.40;;;1.30;;
10450;SDS011;5273;51.290;6.918;2023-04-03T15:01:48;2.50;;;1.30;;
10450;SDS011;5273;51.290;6.918;2023-04-03T15:04:15;3.53;;;1.40;;
10450;SDS011;5273;51.290;6.918;2023-04-03T15:06:45;2.77;;;1.30;;
10450;SDS011;5273;51.290;6.918;2023-04-03T15:09:17;0.93;;;0.73;;
10450;SDS011;5273;51.290;6.918;2023-04-03T15:11:46;2.43;;;1.30;;
10450;SDS011;5273;51.290;6.918;2023-04-03T15:14:13;3.80;;;1.33;;
10450;SDS011;5273;51.290;6.918;2023-04-03T15:16:40;2.00;;;1.03;;
10450;SDS011;5273;51.290;6.918;2023-04-03T15:19:07;1.67;;;1.10;;
10450;SDS011;5273;51.290;6.918;2023-04-03T15:21:34;2.10;;;1.30;;
10450;SDS011;5273;51.290;6.918;2023-04-03T15:24:02;3.20;;;1.30;;
10450;SDS011;5273;51.290;6.918;2023-04-03T15:26:30;1.80;;;1.30;;
10450;SDS011;5273;51.290;6.918;2023-04-03T15:28:58;2.20;;;1.43;;
10450;SDS011;5273;51.290;6.918;2023-04-03T15:31:25;1.87;;;1.50;;
10450;SDS011;5273;51.290;6.918;2023-04-03T15:33:52;3.97;;;1.40;;
10450;SDS011;5273;51.290;6.918;2023-04-03T15:36:18;3.33;;;1.10;;
10450;SDS011;5273;51.290;6.918;2023-04-03T15:38:45;2.37;;;1.40;;
10450;SDS011;5273;51.290;6.918;2023-04-03T15:41:13;2.17;;;1.40;;
10450;SDS011;5273;51.290;6.918;2023-04-03T15:43:40;2.50;;;1.37;;